sensor_id;sensor_type;location;lat;lon;timestamp;P1;durP1;ratioP1;P2;durP2;ratioP2
7669;SDS011;3877;42.562;27.636;2023-05-07T00:01:42;7.30;;;2.80;;
7669;SDS011;3877;42.562;27.636;2023-05-07T00:04:09;7.32;;;2.83;;
7669;SDS011;3877;42.562;27.636;2023-05-07T00:06:36;8.53;;;2.67;;
7669;SDS011;3877;42.562;27.636;2023-05-07T00:09:03;6.07;;;2.75;;
7669;SDS011;3877;42.562;27.636;2023-05-07T00:11:30;6.67;;;2.50;;
7669;SDS011;3877;42.562;27.636;2023-05-07T00:13:57;6.30;;;2.20;;
7669;SDS011;3877;42.562;27.636;2023-05-07T00:16:25;7.17;;;2.63;;
7669;SDS011;3877;42.562;27.636;2023-05-07T00:18:53;7.60;;;2.30;;
7669;SDS011;3877;42.562;27.636;2023-05-07T00:21:20;8.00;;;2.40;;
7669;SDS011;3877;42.562;27.636;2023-05-07T00:23:47;5.57;;;2.07;;
7669;SDS011;3877;42.562;27.636;2023-05-07T00:26:14;6.03;;;2.30;;
7669;SDS011;3877;42.562;27.636;2023-05-07T00:28:41;6.30;;;2.23;;
7669;SDS011;3877;42.562;27.636;2023-05-07T00:31:08;9.68;;;2.72;;
7669;SDS011;3877;42.562;27.636;2023-05-07T00:33:35;3.77;;;2.47;;
7669;SDS011;3877;42.562;27.636;2023-05-07T00:36:03;9.03;;;2.77;;
7669;SDS011;3877;42.562;27.636;2023-05-07T00:38:30;8.60;;;2.60;;
7669;SDS011;3877;42.562;27.636;2023-05-07T00:40:57;8.10;;;2.60;;
7669;SDS011;3877;42.562;27.636;2023-05-07T00:43:24;8.47;;;2.50;;
7669;SDS011;3877;42.562;27.636;2023-05-07T00:45:51;7.60;;;2.27;;
7669;SDS011;3877;42.562;27.636;2023-05-07T00:48:18;5.67;;;2.60;;
7669;SDS011;3877;42.562;27.636;2023-05-07T00:50:45;9.47;;;2.43;;
7669;SDS011;3877;42.562;27.636;2023-05-07T00:53:14;10.50;;;2.77;;
7669;SDS011;3877;42.562;27.636;2023-05-07T00:55:41;5.60;;;2.40;;
7669;SDS011;3877;42.562;27.636;2023-05-07T00:58:08;4.60;;;2.50;;
7669;SDS011;3877;42.562;27.636;2023-05-07T01:00:35;8.13;;;2.83;;
7669;SDS011;3877;42.562;27.636;2023-05-07T01:03:02;4.53;;;2.30;;
7669;SDS011;3877;42.562;27.636;2023-05-07T01:05:29;4.30;;;2.27;;
7669;SDS011;3877;42.562;27.636;2023-05-07T01:07:57;6.10;;;2.50;;
7669;SDS011;3877;42.562;27.636;2023-05-07T01:10:25;9.93;;;2.70;;
7669;SDS011;3877;42.562;27.636;2023-05-07T01:12:52;2.93;;;2.37;;
7669;SDS011;3877;42.562;27.636;2023-05-07T01:15:20;5.20;;;2.27;;
7669;SDS011;3877;42.562;27.636;2023-05-07T01:17:47;4.10;;;2.43;;
7669;SDS011;3877;42.562;27.636;2023-05-07T01:20:14;4.10;;;2.57;;
7669;SDS011;3877;42.562;27.636;2023-05-07T01:22:42;4.80;;;2.50;;
7669;SDS011;3877;42.562;27.636;2023-05-07T01:25:09;4.17;;;2.50;;
7669;SDS011;3877;42.562;27.636;2023-05-07T01:27:36;3.93;;;2.20;;
7669;SDS011;3877;42.562;27.636;2023-05-07T01:30:03;4.57;;;2.70;;
7669;SDS011;3877;42.562;27.636;2023-05-07T01:32:32;5.85;;;2.58;;
7669;SDS011;3877;42.562;27.636;2023-05-07T01:35:00;4.53;;;2.30;;
7669;SDS011;3877;42.562;27.636;2023-05-07T01:37:27;5.20;;;2.43;;
7669;SDS011;3877;42.562;27.636;2023-05-07T01:39:56;6.47;;;2.50;;
7669;SDS011;3877;42.562;27.636;2023-05-07T01:42:22;6.03;;;2.43;;
7669;SDS011;3877;42.562;27.636;2023-05-07T01:44:49;6.67;;;2.53;;
7669;SDS011;3877;42.562;27.636;2023-05-07T01:47:17;4.20;;;2.57;;
7669;SDS011;3877;42.562;27.636;2023-05-07T01:49:43;4.17;;;2.53;;
7669;SDS011;3877;42.562;27.636;2023-05-07T01:52:10;7.93;;;2.63;;
7669;SDS011;3877;42.562;27.636;2023-05-07T01:54:38;3.60;;;2.43;;
7669;SDS011;3877;42.562;27.636;2023-05-07T01:57:06;4.33;;;2.47;;
7669;SDS011;3877;42.562;27.636;2023-05-07T01:59:33;10.20;;;2.50;;
7669;SDS011;3877;42.562;27.636;2023-05-07T02:01:59;8.33;;;2.67;;
7669;SDS011;3877;42.562;27.636;2023-05-07T02:04:27;7.10;;;2.60;;
7669;SDS011;3877;42.562;27.636;2023-05-07T02:06:53;9.53;;;2.80;;
7669;SDS011;3877;42.562;27.636;2023-05-07T02:09:21;7.07;;;2.53;;
7669;SDS011;3877;42.562;27.636;2023-05-07T02:11:48;7.33;;;2.40;;
7669;SDS011;3877;42.562;27.636;2023-05-07T02:14:16;4.63;;;2.40;;
7669;SDS011;3877;42.562;27.636;2023-05-07T02:16:43;6.10;;;2.60;;
7669;SDS011;3877;42.562;27.636;2023-05-07T02:19:10;4.87;;;2.23;;
7669;SDS011;3877;42.562;27.636;2023-05-07T02:21:37;4.93;;;2.40;;
7669;SDS011;3877;42.562;27.636;2023-05-07T02:24:04;4.93;;;2.77;;
7669;SDS011;3877;42.562;27.636;2023-05-07T02:26:31;5.60;;;2.50;;
7669;SDS011;3877;42.562;27.636;2023-05-07T02:28:57;5.63;;;2.80;;
7669;SDS011;3877;42.562;27.636;2023-05-07T02:31:26;5.53;;;2.60;;
7669;SDS011;3877;42.562;27.636;2023-05-07T02:33:53;7.13;;;2.50;;
7669;SDS011;3877;42.562;27.636;2023-05-07T02:36:20;5.73;;;2.97;;
7669;SDS011;3877;42.562;27.636;2023-05-07T02:38:47;6.80;;;2.80;;
7669;SDS011;3877;42.562;27.636;2023-05-07T02:41:14;6.87;;;2.53;;
7669;SDS011;3877;42.562;27.636;2023-05-07T02:43:40;7.30;;;2.50;;
7669;SDS011;3877;42.562;27.636;2023-05-07T02:46:08;5.43;;;2.53;;
7669;SDS011;3877;42.562;27.636;2023-05-07T02:48:36;15.17;;;3.07;;
7669;SDS011;3877;42.562;27.636;2023-05-07T02:51:03;5.90;;;2.70;;
7669;SDS011;3877;42.562;27.636;2023-05-07T02:53:31;8.87;;;2.97;;
7669;SDS011;3877;42.562;27.636;2023-05-07T02:55:59;7.63;;;2.60;;
7669;SDS011;3877;42.562;27.636;2023-05-07T02:58:26;8.10;;;2.73;;
7669;SDS011;3877;42.562;27.636;2023-05-07T03:00:53;5.70;;;2.57;;
7669;SDS011;3877;42.562;27.636;2023-05-07T03:03:20;7.90;;;2.80;;
7669;SDS011;3877;42.562;27.636;2023-05-07T03:05:48;6.90;;;2.67;;
7669;SDS011;3877;42.562;27.636;2023-05-07T03:08:16;8.30;;;2.83;;
7669;SDS011;3877;42.562;27.636;2023-05-07T03:10:43;8.50;;;2.83;;
7669;SDS011;3877;42.562;27.636;2023-05-07T03:13:10;8.00;;;3.30;;
7669;SDS011;3877;42.562;27.636;2023-05-07T03:15:37;7.73;;;2.63;;
7669;SDS011;3877;42.562;27.636;2023-05-07T03:18:04;5.80;;;2.80;;
7669;SDS011;3877;42.562;27.636;2023-05-07T03:20:31;6.53;;;2.80;;
7669;SDS011;3877;42.562;27.636;2023-05-07T03:23:00;11.23;;;2.77;;
7669;SDS011;3877;42.562;27.636;2023-05-07T03:25:27;8.97;;;3.37;;
7669;SDS011;3877;42.562;27.636;2023-05-07T03:27:55;5.47;;;2.83;;
7669;SDS011;3877;42.562;27.636;2023-05-07T03:30:22;7.90;;;3.73;;
7669;SDS011;3877;42.562;27.636;2023-05-07T03:32:49;11.43;;;3.67;;
7669;SDS011;3877;42.562;27.636;2023-05-07T03:35:16;7.53;;;3.10;;
7669;SDS011;3877;42.562;27.636;2023-05-07T03:37:43;4.73;;;2.90;;
7669;SDS011;3877;42.562;27.636;2023-05-07T03:40:11;6.37;;;2.93;;
7669;SDS011;3877;42.562;27.636;2023-05-07T03:42:38;9.37;;;2.73;;
7669;SDS011;3877;42.562;27.636;2023-05-07T03:45:06;8.87;;;2.90;;
7669;SDS011;3877;42.562;27.636;2023-05-07T03:47:33;4.93;;;2.73;;
7669;SDS011;3877;42.562;27.636;2023-05-07T03:50:00;6.90;;;2.90;;
7669;SDS011;3877;42.562;27.636;2023-05-07T03:52:27;6.00;;;2.63;;
7669;SDS011;3877;42.562;27.636;2023-05-07T03:54:54;6.50;;;2.57;;
7669;SDS011;3877;42.562;27.636;2023-05-07T03:57:22;9.13;;;2.67;;
7669;SDS011;3877;42.562;27.636;2023-05-07T03:59:50;5.27;;;2.77;;
7669;SDS011;3877;42.562;27.636;2023-05-07T04:02:17;11.47;;;2.90;;
7669;SDS011;3877;42.562;27.636;2023-05-07T04:04:43;6.67;;;2.73;;
7669;SDS011;3877;42.562;27.636;2023-05-07T04:07:11;6.27;;;2.80;;
7669;SDS011;3877;42.562;27.636;2023-05-07T04:09:37;7.83;;;3.20;;
7669;SDS011;3877;42.562;27.636;2023-05-07T04:12:04;7.93;;;2.83;;
7669;SDS011;3877;42.562;27.636;2023-05-07T04:14:33;11.20;;;2.60;;
7669;SDS011;3877;42.562;27.636;2023-05-07T04:17:00;7.10;;;2.70;;
7669;SDS011;3877;42.562;27.636;2023-05-07T04:19:27;7.63;;;2.90;;
7669;SDS011;3877;42.562;27.636;2023-05-07T04:21:54;7.43;;;2.60;;
7669;SDS011;3877;42.562;27.636;2023-05-07T04:24:21;7.50;;;2.67;;
7669;SDS011;3877;42.562;27.636;2023-05-07T04:26:48;6.30;;;2.70;;
7669;SDS011;3877;42.562;27.636;2023-05-07T04:29:16;11.97;;;2.63;;
7669;SDS011;3877;42.562;27.636;2023-05-07T04:31:45;7.93;;;3.00;;
7669;SDS011;3877;42.562;27.636;2023-05-07T04:37:15;9.13;;;2.87;;
7669;SDS011;3877;42.562;27.636;2023-05-07T04:39:42;5.32;;;2.50;;
7669;SDS011;3877;42.562;27.636;2023-05-07T04:42:09;7.97;;;2.97;;
7669;SDS011;3877;42.562;27.636;2023-05-07T04:44:35;4.37;;;2.40;;
7669;SDS011;3877;42.562;27.636;2023-05-07T04:47:04;6.27;;;2.70;;
7669;SDS011;3877;42.562;27.636;2023-05-07T04:49:31;7.13;;;2.20;;
7669;SDS011;3877;42.562;27.636;2023-05-07T04:51:58;9.70;;;2.70;;
7669;SDS011;3877;42.562;27.636;2023-05-07T04:54:25;6.03;;;2.37;;
7669;SDS011;3877;42.562;27.636;2023-05-07T04:56:52;5.05;;;2.80;;
7669;SDS011;3877;42.562;27.636;2023-05-07T04:59:18;7.68;;;2.72;;
7669;SDS011;3877;42.562;27.636;2023-05-07T05:01:45;4.65;;;2.40;;
7669;SDS011;3877;42.562;27.636;2023-05-07T05:04:13;12.50;;;2.80;;
7669;SDS011;3877;42.562;27.636;2023-05-07T05:06:40;8.63;;;2.83;;
7669;SDS011;3877;42.562;27.636;2023-05-07T05:09:07;6.70;;;2.67;;
7669;SDS011;3877;42.562;27.636;2023-05-07T05:11:34;6.03;;;2.90;;
7669;SDS011;3877;42.562;27.636;2023-05-07T05:14:01;9.50;;;2.65;;
7669;SDS011;3877;42.562;27.636;2023-05-07T05:16:27;8.10;;;2.30;;
7669;SDS011;3877;42.562;27.636;2023-05-07T05:18:54;10.65;;;2.63;;
7669;SDS011;3877;42.562;27.636;2023-05-07T05:21:22;6.32;;;2.33;;
7669;SDS011;3877;42.562;27.636;2023-05-07T05:23:49;6.43;;;2.58;;
7669;SDS011;3877;42.562;27.636;2023-05-07T05:26:17;5.45;;;2.50;;
7669;SDS011;3877;42.562;27.636;2023-05-07T05:28:44;6.75;;;2.67;;
7669;SDS011;3877;42.562;27.636;2023-05-07T05:31:11;12.30;;;3.15;;
7669;SDS011;3877;42.562;27.636;2023-05-07T05:33:37;6.18;;;2.25;;
7669;SDS011;3877;42.562;27.636;2023-05-07T05:36:05;9.50;;;2.70;;
7669;SDS011;3877;42.562;27.636;2023-05-07T05:38:33;8.23;;;3.03;;
7669;SDS011;3877;42.562;27.636;2023-05-07T05:41:00;9.40;;;3.00;;
7669;SDS011;3877;42.562;27.636;2023-05-07T05:43:27;6.78;;;2.45;;
7669;SDS011;3877;42.562;27.636;2023-05-07T05:45:55;7.57;;;2.55;;
7669;SDS011;3877;42.562;27.636;2023-05-07T05:48:21;7.35;;;2.70;;
7669;SDS011;3877;42.562;27.636;2023-05-07T05:50:48;4.60;;;2.45;;
7669;SDS011;3877;42.562;27.636;2023-05-07T05:53:15;4.60;;;2.60;;
7669;SDS011;3877;42.562;27.636;2023-05-07T05:55:43;5.78;;;2.47;;
7669;SDS011;3877;42.562;27.636;2023-05-07T05:58:10;5.32;;;2.35;;
7669;SDS011;3877;42.562;27.636;2023-05-07T06:00:37;6.18;;;2.42;;
7669;SDS011;3877;42.562;27.636;2023-05-07T06:03:04;9.02;;;2.70;;
7669;SDS011;3877;42.562;27.636;2023-05-07T06:05:30;8.23;;;2.67;;
7669;SDS011;3877;42.562;27.636;2023-05-07T06:07:57;5.78;;;2.60;;
7669;SDS011;3877;42.562;27.636;2023-05-07T06:10:24;6.97;;;2.95;;
7669;SDS011;3877;42.562;27.636;2023-05-07T06:12:56;10.13;;;2.75;;
7669;SDS011;3877;42.562;27.636;2023-05-07T06:15:22;14.15;;;2.55;;
7669;SDS011;3877;42.562;27.636;2023-05-07T06:17:49;7.80;;;5.72;;
7669;SDS011;3877;42.562;27.636;2023-05-07T06:20:16;5.30;;;2.60;;
7669;SDS011;3877;42.562;27.636;2023-05-07T06:22:43;6.50;;;2.53;;
7669;SDS011;3877;42.562;27.636;2023-05-07T06:25:10;7.65;;;2.65;;
7669;SDS011;3877;42.562;27.636;2023-05-07T06:27:39;6.57;;;2.65;;
7669;SDS011;3877;42.562;27.636;2023-05-07T06:30:19;10.57;;;2.53;;
7669;SDS011;3877;42.562;27.636;2023-05-07T06:32:47;9.18;;;2.70;;
7669;SDS011;3877;42.562;27.636;2023-05-07T06:35:15;6.40;;;2.50;;
7669;SDS011;3877;42.562;27.636;2023-05-07T06:37:42;8.88;;;2.80;;
7669;SDS011;3877;42.562;27.636;2023-05-07T06:40:09;7.78;;;2.83;;
7669;SDS011;3877;42.562;27.636;2023-05-07T06:42:36;7.40;;;2.50;;
7669;SDS011;3877;42.562;27.636;2023-05-07T06:45:04;5.28;;;2.28;;
7669;SDS011;3877;42.562;27.636;2023-05-07T06:47:32;7.53;;;2.60;;
7669;SDS011;3877;42.562;27.636;2023-05-07T06:49:59;5.57;;;2.60;;
7669;SDS011;3877;42.562;27.636;2023-05-07T06:52:26;8.95;;;3.03;;
7669;SDS011;3877;42.562;27.636;2023-05-07T06:54:52;4.00;;;2.42;;
7669;SDS011;3877;42.562;27.636;2023-05-07T06:57:19;8.57;;;2.50;;
7669;SDS011;3877;42.562;27.636;2023-05-07T06:59:46;10.73;;;2.90;;
7669;SDS011;3877;42.562;27.636;2023-05-07T07:02:13;5.35;;;2.80;;
7669;SDS011;3877;42.562;27.636;2023-05-07T07:04:41;7.22;;;2.53;;
7669;SDS011;3877;42.562;27.636;2023-05-07T07:07:08;7.25;;;2.88;;
7669;SDS011;3877;42.562;27.636;2023-05-07T07:09:35;5.10;;;2.53;;
7669;SDS011;3877;42.562;27.636;2023-05-07T07:12:02;8.07;;;2.47;;
7669;SDS011;3877;42.562;27.636;2023-05-07T07:14:29;8.95;;;3.20;;
7669;SDS011;3877;42.562;27.636;2023-05-07T07:16:56;11.73;;;2.58;;
7669;SDS011;3877;42.562;27.636;2023-05-07T07:19:22;7.03;;;2.67;;
7669;SDS011;3877;42.562;27.636;2023-05-07T07:21:51;6.88;;;2.60;;
7669;SDS011;3877;42.562;27.636;2023-05-07T07:24:18;11.82;;;2.97;;
7669;SDS011;3877;42.562;27.636;2023-05-07T07:26:46;9.43;;;2.58;;
7669;SDS011;3877;42.562;27.636;2023-05-07T07:29:13;6.45;;;2.50;;
7669;SDS011;3877;42.562;27.636;2023-05-07T07:31:40;7.93;;;2.75;;
7669;SDS011;3877;42.562;27.636;2023-05-07T07:34:06;7.63;;;2.92;;
7669;SDS011;3877;42.562;27.636;2023-05-07T07:36:33;10.35;;;3.00;;
7669;SDS011;3877;42.562;27.636;2023-05-07T07:39:02;5.22;;;2.70;;
7669;SDS011;3877;42.562;27.636;2023-05-07T07:41:29;7.45;;;2.97;;
7669;SDS011;3877;42.562;27.636;2023-05-07T07:43:56;14.35;;;2.97;;
7669;SDS011;3877;42.562;27.636;2023-05-07T07:46:23;11.90;;;3.10;;
7669;SDS011;3877;42.562;27.636;2023-05-07T07:48:49;6.28;;;2.88;;
7669;SDS011;3877;42.562;27.636;2023-05-07T07:51:17;8.55;;;2.80;;
7669;SDS011;3877;42.562;27.636;2023-05-07T07:53:43;9.02;;;2.80;;
7669;SDS011;3877;42.562;27.636;2023-05-07T07:56:11;8.35;;;3.33;;
7669;SDS011;3877;42.562;27.636;2023-05-07T07:58:38;10.32;;;3.00;;
7669;SDS011;3877;42.562;27.636;2023-05-07T08:01:05;10.80;;;2.83;;
7669;SDS011;3877;42.562;27.636;2023-05-07T08:03:32;10.80;;;2.65;;
7669;SDS011;3877;42.562;27.636;2023-05-07T08:05:59;7.07;;;2.65;;
7669;SDS011;3877;42.562;27.636;2023-05-07T08:08:25;8.25;;;2.90;;
7669;SDS011;3877;42.562;27.636;2023-05-07T08:10:52;7.45;;;3.17;;
7669;SDS011;3877;42.562;27.636;2023-05-07T08:13:20;7.05;;;2.55;;
7669;SDS011;3877;42.562;27.636;2023-05-07T08:15:47;8.30;;;2.78;;
7669;SDS011;3877;42.562;27.636;2023-05-07T08:18:14;6.65;;;2.78;;
7669;SDS011;3877;42.562;27.636;2023-05-07T08:20:41;4.82;;;2.53;;
7669;SDS011;3877;42.562;27.636;2023-05-07T08:23:07;7.87;;;2.90;;
7669;SDS011;3877;42.562;27.636;2023-05-07T08:25:34;10.90;;;2.90;;
7669;SDS011;3877;42.562;27.636;2023-05-07T08:28:02;7.82;;;2.50;;
7669;SDS011;3877;42.562;27.636;2023-05-07T08:30:31;7.15;;;3.03;;
7669;SDS011;3877;42.562;27.636;2023-05-07T08:32:57;7.43;;;2.95;;
7669;SDS011;3877;42.562;27.636;2023-05-07T08:35:24;7.90;;;2.95;;
7669;SDS011;3877;42.562;27.636;2023-05-07T08:37:52;9.15;;;2.97;;
7669;SDS011;3877;42.562;27.636;2023-05-07T08:40:18;5.22;;;2.30;;
7669;SDS011;3877;42.562;27.636;2023-05-07T08:42:48;6.80;;;3.13;;
7669;SDS011;3877;42.562;27.636;2023-05-07T08:45:16;6.88;;;2.40;;
7669;SDS011;3877;42.562;27.636;2023-05-07T08:47:46;5.97;;;2.75;;
7669;SDS011;3877;42.562;27.636;2023-05-07T08:50:13;9.90;;;2.72;;
7669;SDS011;3877;42.562;27.636;2023-05-07T08:52:40;8.13;;;3.00;;
7669;SDS011;3877;42.562;27.636;2023-05-07T08:55:08;5.28;;;2.60;;
7669;SDS011;3877;42.562;27.636;2023-05-07T08:57:35;8.70;;;2.90;;
7669;SDS011;3877;42.562;27.636;2023-05-07T09:00:02;5.35;;;2.85;;
7669;SDS011;3877;42.562;27.636;2023-05-07T09:02:29;8.60;;;2.70;;
7669;SDS011;3877;42.562;27.636;2023-05-07T09:04:57;11.02;;;2.80;;
7669;SDS011;3877;42.562;27.636;2023-05-07T09:07:24;5.30;;;2.40;;
7669;SDS011;3877;42.562;27.636;2023-05-07T09:09:52;6.18;;;2.70;;
7669;SDS011;3877;42.562;27.636;2023-05-07T09:12:19;4.45;;;2.50;;
7669;SDS011;3877;42.562;27.636;2023-05-07T09:14:46;7.30;;;2.63;;
7669;SDS011;3877;42.562;27.636;2023-05-07T09:17:13;11.60;;;3.00;;
7669;SDS011;3877;42.562;27.636;2023-05-07T09:19:39;8.48;;;3.50;;
7669;SDS011;3877;42.562;27.636;2023-05-07T09:22:08;10.75;;;3.03;;
7669;SDS011;3877;42.562;27.636;2023-05-07T09:24:34;10.55;;;3.13;;
7669;SDS011;3877;42.562;27.636;2023-05-07T09:27:03;6.38;;;2.65;;
7669;SDS011;3877;42.562;27.636;2023-05-07T09:29:30;6.18;;;2.50;;
7669;SDS011;3877;42.562;27.636;2023-05-07T09:32:00;4.85;;;2.67;;
7669;SDS011;3877;42.562;27.636;2023-05-07T09:34:27;11.90;;;2.55;;
7669;SDS011;3877;42.562;27.636;2023-05-07T09:36:54;5.95;;;2.80;;
7669;SDS011;3877;42.562;27.636;2023-05-07T09:39:23;6.97;;;3.55;;
7669;SDS011;3877;42.562;27.636;2023-05-07T09:41:51;4.78;;;2.78;;
7669;SDS011;3877;42.562;27.636;2023-05-07T09:44:20;9.10;;;2.38;;
7669;SDS011;3877;42.562;27.636;2023-05-07T09:46:47;7.35;;;2.72;;
7669;SDS011;3877;42.562;27.636;2023-05-07T09:49:19;6.20;;;2.80;;
7669;SDS011;3877;42.562;27.636;2023-05-07T09:51:48;9.73;;;3.30;;
7669;SDS011;3877;42.562;27.636;2023-05-07T09:54:15;7.38;;;2.80;;
7669;SDS011;3877;42.562;27.636;2023-05-07T09:56:44;7.32;;;2.70;;
7669;SDS011;3877;42.562;27.636;2023-05-07T09:59:12;8.05;;;3.20;;
7669;SDS011;3877;42.562;27.636;2023-05-07T10:01:39;12.43;;;3.47;;
7669;SDS011;3877;42.562;27.636;2023-05-07T10:04:07;8.93;;;3.03;;
7669;SDS011;3877;42.562;27.636;2023-05-07T10:06:34;8.35;;;2.90;;
7669;SDS011;3877;42.562;27.636;2023-05-07T10:09:01;11.80;;;3.40;;
7669;SDS011;3877;42.562;27.636;2023-05-07T10:11:28;10.27;;;2.80;;
7669;SDS011;3877;42.562;27.636;2023-05-07T10:13:56;7.53;;;2.60;;
7669;SDS011;3877;42.562;27.636;2023-05-07T10:16:23;12.50;;;3.13;;
7669;SDS011;3877;42.562;27.636;2023-05-07T10:18:50;6.10;;;2.83;;
7669;SDS011;3877;42.562;27.636;2023-05-07T10:21:18;4.85;;;2.70;;
7669;SDS011;3877;42.562;27.636;2023-05-07T10:23:45;8.55;;;3.40;;
7669;SDS011;3877;42.562;27.636;2023-05-07T10:26:14;6.82;;;3.10;;
7669;SDS011;3877;42.562;27.636;2023-05-07T10:28:43;9.07;;;3.00;;
7669;SDS011;3877;42.562;27.636;2023-05-07T10:31:28;10.73;;;3.20;;
7669;SDS011;3877;42.562;27.636;2023-05-07T10:34:01;6.10;;;2.92;;
7669;SDS011;3877;42.562;27.636;2023-05-07T10:36:33;11.82;;;3.00;;
7669;SDS011;3877;42.562;27.636;2023-05-07T10:39:00;10.57;;;3.30;;
7669;SDS011;3877;42.562;27.636;2023-05-07T10:41:27;9.70;;;3.22;;
7669;SDS011;3877;42.562;27.636;2023-05-07T10:43:53;7.38;;;3.03;;
7669;SDS011;3877;42.562;27.636;2023-05-07T10:46:22;7.87;;;2.80;;
7669;SDS011;3877;42.562;27.636;2023-05-07T10:49:07;7.63;;;3.00;;
7669;SDS011;3877;42.562;27.636;2023-05-07T10:51:35;5.90;;;2.70;;
7669;SDS011;3877;42.562;27.636;2023-05-07T10:54:21;6.65;;;2.95;;
7669;SDS011;3877;42.562;27.636;2023-05-07T10:56:48;11.07;;;3.55;;
7669;SDS011;3877;42.562;27.636;2023-05-07T10:59:35;10.98;;;2.90;;
7669;SDS011;3877;42.562;27.636;2023-05-07T11:02:08;4.95;;;2.85;;
7669;SDS011;3877;42.562;27.636;2023-05-07T11:04:36;7.45;;;3.03;;
7669;SDS011;3877;42.562;27.636;2023-05-07T11:09:54;6.38;;;2.80;;
7669;SDS011;3877;42.562;27.636;2023-05-07T11:15:06;13.77;;;3.80;;
7669;SDS011;3877;42.562;27.636;2023-05-07T11:17:35;8.70;;;3.28;;
7669;SDS011;3877;42.562;27.636;2023-05-07T11:20:18;7.93;;;3.33;;
7669;SDS011;3877;42.562;27.636;2023-05-07T11:22:45;13.35;;;3.30;;
7669;SDS011;3877;42.562;27.636;2023-05-07T11:25:16;13.85;;;3.15;;
7669;SDS011;3877;42.562;27.636;2023-05-07T11:27:44;7.40;;;3.20;;
7669;SDS011;3877;42.562;27.636;2023-05-07T11:30:11;10.95;;;3.47;;
7669;SDS011;3877;42.562;27.636;2023-05-07T11:32:47;16.30;;;3.40;;
7669;SDS011;3877;42.562;27.636;2023-05-07T11:35:13;10.15;;;3.42;;
7669;SDS011;3877;42.562;27.636;2023-05-07T11:37:42;6.57;;;3.10;;
7669;SDS011;3877;42.562;27.636;2023-05-07T11:40:11;12.53;;;3.57;;
7669;SDS011;3877;42.562;27.636;2023-05-07T11:42:39;10.25;;;3.40;;
7669;SDS011;3877;42.562;27.636;2023-05-07T11:45:06;11.15;;;3.83;;
7669;SDS011;3877;42.562;27.636;2023-05-07T11:47:34;11.23;;;3.67;;
7669;SDS011;3877;42.562;27.636;2023-05-07T11:50:03;10.63;;;3.53;;
7669;SDS011;3877;42.562;27.636;2023-05-07T11:52:31;10.45;;;3.88;;
7669;SDS011;3877;42.562;27.636;2023-05-07T11:54:59;12.35;;;3.97;;
7669;SDS011;3877;42.562;27.636;2023-05-07T11:57:27;12.73;;;4.25;;
7669;SDS011;3877;42.562;27.636;2023-05-07T11:59:54;11.10;;;4.15;;
7669;SDS011;3877;42.562;27.636;2023-05-07T12:02:21;15.27;;;4.10;;
7669;SDS011;3877;42.562;27.636;2023-05-07T12:04:50;13.90;;;3.83;;
7669;SDS011;3877;42.562;27.636;2023-05-07T12:07:18;10.65;;;3.95;;
7669;SDS011;3877;42.562;27.636;2023-05-07T12:09:45;14.07;;;4.00;;
7669;SDS011;3877;42.562;27.636;2023-05-07T12:12:12;12.90;;;4.10;;
7669;SDS011;3877;42.562;27.636;2023-05-07T12:14:40;11.70;;;4.00;;
7669;SDS011;3877;42.562;27.636;2023-05-07T12:17:08;9.35;;;3.80;;
7669;SDS011;3877;42.562;27.636;2023-05-07T12:19:35;14.77;;;4.60;;
7669;SDS011;3877;42.562;27.636;2023-05-07T12:22:02;18.60;;;4.50;;
7669;SDS011;3877;42.562;27.636;2023-05-07T12:24:42;14.57;;;4.22;;
7669;SDS011;3877;42.562;27.636;2023-05-07T12:27:09;14.30;;;4.03;;
7669;SDS011;3877;42.562;27.636;2023-05-07T12:29:36;14.95;;;4.45;;
7669;SDS011;3877;42.562;27.636;2023-05-07T12:32:04;13.13;;;4.27;;
7669;SDS011;3877;42.562;27.636;2023-05-07T12:34:32;20.57;;;4.90;;
7669;SDS011;3877;42.562;27.636;2023-05-07T12:37:01;15.13;;;4.70;;
7669;SDS011;3877;42.562;27.636;2023-05-07T12:39:28;11.18;;;4.63;;
7669;SDS011;3877;42.562;27.636;2023-05-07T12:41:57;14.10;;;5.25;;
7669;SDS011;3877;42.562;27.636;2023-05-07T12:44:25;10.93;;;4.45;;
7669;SDS011;3877;42.562;27.636;2023-05-07T12:46:55;17.07;;;5.17;;
7669;SDS011;3877;42.562;27.636;2023-05-07T12:49:22;16.35;;;5.53;;
7669;SDS011;3877;42.562;27.636;2023-05-07T12:51:50;16.10;;;5.50;;
7669;SDS011;3877;42.562;27.636;2023-05-07T12:54:27;14.07;;;4.35;;
7669;SDS011;3877;42.562;27.636;2023-05-07T12:57:01;17.97;;;4.97;;
7669;SDS011;3877;42.562;27.636;2023-05-07T12:59:32;16.53;;;4.90;;
7669;SDS011;3877;42.562;27.636;2023-05-07T13:01:59;15.27;;;4.60;;
7669;SDS011;3877;42.562;27.636;2023-05-07T13:04:26;17.03;;;5.13;;
7669;SDS011;3877;42.562;27.636;2023-05-07T13:06:52;14.10;;;5.57;;
7669;SDS011;3877;42.562;27.636;2023-05-07T13:09:19;14.60;;;4.97;;
7669;SDS011;3877;42.562;27.636;2023-05-07T13:11:46;16.53;;;4.80;;
7669;SDS011;3877;42.562;27.636;2023-05-07T13:14:14;14.30;;;4.93;;
7669;SDS011;3877;42.562;27.636;2023-05-07T13:16:41;10.00;;;4.30;;
7669;SDS011;3877;42.562;27.636;2023-05-07T13:19:08;14.88;;;4.45;;
7669;SDS011;3877;42.562;27.636;2023-05-07T13:21:35;20.85;;;5.28;;
7669;SDS011;3877;42.562;27.636;2023-05-07T13:24:02;16.15;;;4.30;;
7669;SDS011;3877;42.562;27.636;2023-05-07T13:26:29;17.33;;;4.68;;
7669;SDS011;3877;42.562;27.636;2023-05-07T13:28:56;13.67;;;4.60;;
7669;SDS011;3877;42.562;27.636;2023-05-07T13:31:25;13.05;;;4.32;;
7669;SDS011;3877;42.562;27.636;2023-05-07T13:33:52;10.60;;;5.43;;
7669;SDS011;3877;42.562;27.636;2023-05-07T13:36:19;16.00;;;4.60;;
7669;SDS011;3877;42.562;27.636;2023-05-07T13:38:46;13.87;;;4.40;;
7669;SDS011;3877;42.562;27.636;2023-05-07T13:41:14;12.88;;;4.47;;
7669;SDS011;3877;42.562;27.636;2023-05-07T13:43:41;13.30;;;4.50;;
7669;SDS011;3877;42.562;27.636;2023-05-07T13:46:08;13.23;;;4.47;;
7669;SDS011;3877;42.562;27.636;2023-05-07T13:48:36;14.87;;;4.23;;
7669;SDS011;3877;42.562;27.636;2023-05-07T13:51:03;13.17;;;4.57;;
7669;SDS011;3877;42.562;27.636;2023-05-07T13:53:30;13.17;;;4.03;;
7669;SDS011;3877;42.562;27.636;2023-05-07T13:55:57;9.90;;;4.18;;
7669;SDS011;3877;42.562;27.636;2023-05-07T13:58:24;12.45;;;4.60;;
7669;SDS011;3877;42.562;27.636;2023-05-07T14:00:51;15.50;;;4.90;;
7669;SDS011;3877;42.562;27.636;2023-05-07T14:03:18;15.23;;;4.70;;
7669;SDS011;3877;42.562;27.636;2023-05-07T14:05:46;18.53;;;4.90;;
7669;SDS011;3877;42.562;27.636;2023-05-07T14:08:13;19.33;;;4.90;;
7669;SDS011;3877;42.562;27.636;2023-05-07T14:10:40;12.43;;;4.57;;
7669;SDS011;3877;42.562;27.636;2023-05-07T14:13:07;12.43;;;4.65;;
7669;SDS011;3877;42.562;27.636;2023-05-07T14:15:34;10.93;;;4.23;;
7669;SDS011;3877;42.562;27.636;2023-05-07T14:18:02;14.70;;;4.23;;
7669;SDS011;3877;42.562;27.636;2023-05-07T14:20:28;19.60;;;4.88;;
7669;SDS011;3877;42.562;27.636;2023-05-07T14:22:57;14.43;;;4.72;;
7669;SDS011;3877;42.562;27.636;2023-05-07T14:25:24;14.50;;;5.15;;
7669;SDS011;3877;42.562;27.636;2023-05-07T14:27:51;15.15;;;4.70;;
7669;SDS011;3877;42.562;27.636;2023-05-07T14:30:18;18.23;;;5.20;;
7669;SDS011;3877;42.562;27.636;2023-05-07T14:32:44;16.17;;;5.15;;
7669;SDS011;3877;42.562;27.636;2023-05-07T14:35:11;14.70;;;4.83;;
7669;SDS011;3877;42.562;27.636;2023-05-07T14:37:38;13.63;;;5.00;;
7669;SDS011;3877;42.562;27.636;2023-05-07T14:40:07;11.77;;;4.85;;
7669;SDS011;3877;42.562;27.636;2023-05-07T14:42:34;13.77;;;4.47;;
7669;SDS011;3877;42.562;27.636;2023-05-07T14:45:01;16.05;;;4.70;;
7669;SDS011;3877;42.562;27.636;2023-05-07T14:47:28;17.03;;;5.13;;
7669;SDS011;3877;42.562;27.636;2023-05-07T14:49:55;10.45;;;4.47;;
7669;SDS011;3877;42.562;27.636;2023-05-07T14:52:23;13.33;;;4.20;;
7669;SDS011;3877;42.562;27.636;2023-05-07T14:54:51;15.17;;;4.40;;
7669;SDS011;3877;42.562;27.636;2023-05-07T14:57:19;13.57;;;4.77;;
7669;SDS011;3877;42.562;27.636;2023-05-07T14:59:46;12.43;;;4.68;;
7669;SDS011;3877;42.562;27.636;2023-05-07T15:02:13;11.32;;;4.53;;
7669;SDS011;3877;42.562;27.636;2023-05-07T15:04:40;15.73;;;4.57;;
7669;SDS011;3877;42.562;27.636;2023-05-07T15:07:10;13.30;;;4.67;;